createdAt,value
2022-10-11T00:00:01.827Z,15.49
2022-10-11T00:01:33.686Z,15.48
2022-10-11T00:03:05.446Z,15.44
2022-10-11T00:04:36.979Z,15.40
2022-10-11T00:06:09.446Z,15.35
2022-10-11T00:07:41.419Z,15.29
2022-10-11T00:09:13.891Z,15.26
2022-10-11T00:10:45.693Z,15.20
2022-10-11T00:12:17.985Z,15.17
2022-10-11T00:13:49.580Z,15.11
2022-10-11T00:15:21.662Z,15.08
2022-10-11T00:16:54.026Z,15.04
2022-10-11T00:18:25.744Z,15.00
2022-10-11T00:19:57.788Z,14.97
2022-10-11T00:21:30.758Z,14.95
2022-10-11T00:23:02.285Z,14.89
2022-10-11T00:24:33.789Z,14.87
2022-10-11T00:26:06.858Z,14.84
2022-10-11T00:27:39.009Z,14.83
2022-10-11T00:29:10.655Z,14.81
2022-10-11T00:30:42.909Z,14.78
2022-10-11T00:32:14.475Z,14.78
2022-10-11T00:33:46.048Z,14.74
2022-10-11T00:35:17.704Z,14.73
2022-10-11T00:36:49.231Z,14.73
2022-10-11T00:38:20.746Z,14.69
2022-10-11T00:39:52.902Z,14.67
2022-10-11T00:41:24.659Z,14.67
2022-10-11T00:42:56.401Z,14.69
2022-10-11T00:44:28.132Z,14.67
2022-10-11T00:46:00.832Z,14.67
2022-10-11T00:47:33.138Z,14.67
2022-10-11T00:49:10.791Z,14.68
2022-10-11T00:50:42.442Z,14.70
2022-10-11T00:52:20.273Z,14.74
2022-10-11T00:53:51.788Z,14.74
2022-10-11T00:55:23.404Z,14.75
2022-10-11T00:56:56.912Z,14.72
2022-10-11T00:58:30.523Z,14.70
2022-10-11T01:00:02.887Z,14.73
2022-10-11T01:01:34.792Z,14.75
2022-10-11T01:03:06.315Z,14.79
2022-10-11T01:04:37.925Z,14.83
2022-10-11T01:06:10.237Z,14.86
2022-10-11T01:07:42.136Z,14.85
2022-10-11T01:09:13.794Z,14.86
2022-10-11T01:10:45.624Z,14.81
2022-10-11T01:12:19.008Z,14.78
2022-10-11T01:14:23.476Z,14.76
2022-10-11T01:16:01.320Z,14.75
2022-10-11T01:17:40.726Z,14.75
2022-10-11T01:19:20.491Z,14.76
2022-10-11T01:20:54.623Z,14.78
2022-10-11T01:22:35.086Z,14.78
2022-10-11T01:24:16.484Z,14.77
2022-10-11T01:26:13.295Z,14.73
2022-10-11T01:28:08.658Z,14.70
2022-10-11T01:29:48.958Z,14.69
2022-10-11T01:34:33.410Z,14.73
2022-10-11T01:36:08.259Z,14.76
2022-10-11T01:37:41.670Z,14.76
2022-10-11T01:39:14.811Z,14.77
2022-10-11T01:40:50.417Z,14.74
2022-10-11T01:42:22.062Z,14.74
2022-10-11T01:43:54.577Z,14.74
2022-10-11T01:45:26.092Z,14.73
2022-10-11T01:46:57.663Z,14.73
2022-10-11T01:48:29.280Z,14.73
2022-10-11T01:50:01.183Z,14.70
2022-10-11T01:51:42.053Z,14.69
2022-10-11T01:53:16.701Z,14.68
2022-10-11T01:55:09.275Z,14.64
2022-10-11T01:57:00.092Z,14.62
2022-10-11T01:58:46.928Z,14.51
2022-10-11T02:00:19.135Z,14.43
2022-10-11T02:02:06.886Z,14.36
2022-10-11T02:03:38.373Z,14.31
2022-10-11T02:05:13.907Z,14.25
2022-10-11T02:06:45.400Z,14.21
2022-10-11T02:08:46.693Z,14.17
2022-10-11T02:10:18.773Z,14.15
2022-10-11T02:11:50.852Z,14.14
2022-10-11T02:13:33.066Z,14.16
2022-10-11T02:15:07.217Z,14.20
2022-10-11T02:17:34.885Z,14.17
2022-10-11T02:29:32.256Z,14.16
2022-10-11T02:31:04.830Z,14.19
2022-10-11T02:32:36.733Z,14.21
2022-10-11T02:34:20.003Z,14.22
2022-10-11T02:35:53.603Z,14.21
2022-10-11T02:37:31.306Z,14.18
2022-10-11T02:39:05.219Z,14.20
2022-10-11T02:40:37.943Z,14.21
2022-10-11T02:42:14.327Z,14.22
2022-10-11T02:43:47.430Z,14.23
2022-10-11T02:45:24.348Z,14.23
2022-10-11T02:46:55.867Z,14.24
2022-10-11T02:48:29.379Z,14.27
2022-10-11T02:50:00.956Z,14.28
2022-10-11T02:51:36.731Z,14.31
2022-10-11T02:53:14.868Z,14.30
2022-10-11T02:54:49.640Z,14.29
2022-10-11T03:00:50.046Z,14.23
2022-10-11T03:02:22.043Z,14.21
2022-10-11T03:03:53.653Z,14.14
2022-10-11T03:05:25.157Z,14.10
2022-10-11T03:06:56.669Z,14.09
2022-10-11T03:08:28.156Z,14.05
2022-10-11T03:10:00.419Z,14.05
2022-10-11T03:11:32.018Z,14.10
2022-10-11T03:13:12.833Z,14.12
2022-10-11T03:14:50.440Z,14.08
2022-10-11T03:16:27.738Z,14.11
2022-10-11T03:18:02.837Z,14.15
2022-10-11T03:25:03.613Z,14.11
2022-10-11T03:26:36.134Z,14.15
2022-10-11T03:28:08.675Z,14.16
2022-10-11T03:29:40.267Z,14.18
2022-10-11T03:31:12.515Z,14.18
2022-10-11T03:32:44.569Z,14.21
2022-10-11T03:34:16.668Z,14.21
2022-10-11T03:35:48.291Z,14.20
2022-10-11T03:37:20.198Z,14.16
2022-10-11T03:38:51.723Z,14.14
2022-10-11T03:40:23.376Z,14.11
2022-10-11T03:41:55.403Z,14.08
2022-10-11T03:43:27.454Z,14.04
2022-10-11T03:44:59.927Z,14.04
2022-10-11T03:46:31.774Z,14.03
2022-10-11T03:48:03.669Z,14.04
2022-10-11T03:49:38.688Z,14.09
2022-10-11T03:51:13.308Z,14.08
2022-10-11T03:52:44.911Z,14.09
2022-10-11T03:54:16.471Z,14.10
2022-10-11T03:55:51.752Z,14.15
2022-10-11T03:57:23.583Z,14.15
2022-10-11T03:58:55.832Z,14.21
2022-10-11T04:00:27.400Z,14.25
2022-10-11T04:01:58.977Z,14.31
2022-10-11T04:03:30.965Z,14.34
2022-10-11T04:05:02.873Z,14.38
2022-10-11T04:06:34.388Z,14.43
2022-10-11T04:08:09.815Z,14.49
2022-10-11T04:09:43.642Z,14.54
2022-10-11T04:11:15.187Z,14.50
2022-10-11T04:12:46.743Z,14.46
2022-10-11T04:14:18.230Z,14.45
2022-10-11T04:15:49.789Z,14.40
2022-10-11T04:17:21.474Z,14.39
2022-10-11T04:18:53.200Z,14.36
2022-10-11T04:20:24.823Z,14.30
2022-10-11T04:21:56.373Z,14.23
2022-10-11T04:23:28.009Z,14.17
2022-10-11T04:24:59.729Z,14.15
2022-10-11T04:26:31.827Z,14.09
2022-10-11T04:28:03.760Z,14.05
2022-10-11T04:29:35.814Z,13.96
2022-10-11T04:31:08.186Z,13.89
2022-10-11T04:32:40.214Z,13.87
2022-10-11T04:34:11.789Z,13.83
2022-10-11T04:35:43.417Z,13.84
2022-10-11T04:37:14.936Z,13.83
2022-10-11T04:38:46.525Z,13.80
2022-10-11T04:40:18.085Z,13.78
2022-10-11T04:41:49.773Z,13.75
2022-10-11T04:43:21.546Z,13.73
2022-10-11T04:44:53.152Z,13.76
2022-10-11T04:46:24.831Z,13.77
2022-10-11T04:47:56.452Z,13.78
2022-10-11T04:49:27.964Z,13.80
2022-10-11T04:50:59.629Z,13.86
2022-10-11T04:52:31.313Z,13.90
2022-10-11T04:54:03.234Z,13.90
2022-10-11T04:55:34.991Z,13.89
2022-10-11T04:57:06.957Z,13.84
2022-10-11T04:58:40.656Z,13.84
2022-10-11T05:00:13.075Z,13.81
2022-10-11T05:01:44.817Z,13.81
2022-10-11T05:03:16.409Z,13.77
2022-10-11T05:04:48.228Z,13.76
2022-10-11T05:06:19.906Z,13.76
2022-10-11T05:07:51.593Z,13.71
2022-10-11T05:09:23.648Z,13.66
2022-10-11T05:11:02.506Z,13.65
2022-10-11T05:12:34.250Z,13.70
2022-10-11T05:14:05.768Z,13.72
2022-10-11T05:15:37.355Z,13.75
2022-10-11T05:17:09.173Z,13.79
2022-10-11T05:18:40.948Z,13.81
2022-10-11T05:20:13.039Z,13.85
2022-10-11T05:21:45.016Z,13.91
2022-10-11T05:23:16.558Z,13.96
2022-10-11T05:24:48.207Z,13.97
2022-10-11T05:26:21.048Z,13.97
2022-10-11T05:27:53.087Z,13.97
2022-10-11T05:29:24.803Z,13.97
2022-10-11T05:30:56.823Z,13.93
2022-10-11T05:32:28.471Z,13.93
2022-10-11T05:34:00.255Z,13.92
2022-10-11T05:35:32.449Z,13.96
2022-10-11T05:37:04.260Z,14.01
2022-10-11T05:38:36.000Z,14.07
2022-10-11T05:40:07.994Z,14.11
2022-10-11T05:41:39.542Z,14.11
2022-10-11T05:43:11.395Z,14.13
2022-10-11T05:44:43.052Z,14.17
2022-10-11T05:46:14.697Z,14.17
2022-10-11T05:47:46.230Z,14.22
2022-10-11T05:49:17.880Z,14.28
2022-10-11T05:50:49.633Z,14.39
2022-10-11T05:52:21.714Z,14.49
2022-10-11T05:53:53.248Z,14.55
2022-10-11T05:55:24.906Z,14.63
2022-10-11T05:56:56.474Z,14.71
2022-10-11T05:58:28.081Z,14.79
2022-10-11T05:59:59.647Z,14.87
2022-10-11T06:01:31.275Z,14.89
2022-10-11T06:03:03.024Z,14.96
2022-10-11T06:04:37.422Z,14.96
2022-10-11T06:06:09.422Z,15.00
2022-10-11T06:07:42.081Z,15.05
2022-10-11T06:09:13.706Z,15.08
2022-10-11T06:10:45.382Z,15.08
2022-10-11T06:12:17.634Z,15.07
2022-10-11T06:13:49.282Z,15.09
2022-10-11T06:15:21.206Z,15.06
2022-10-11T06:16:52.894Z,15.07
2022-10-11T06:18:24.723Z,15.06
2022-10-11T06:19:56.322Z,15.05
2022-10-11T06:21:28.205Z,15.01
2022-10-11T06:23:00.000Z,14.98
2022-10-11T06:24:31.520Z,15.03
2022-10-11T06:26:06.103Z,15.07
2022-10-11T06:27:38.267Z,15.12
2022-10-11T06:29:10.184Z,15.16
2022-10-11T06:30:41.751Z,15.20
2022-10-11T06:32:16.242Z,15.24
2022-10-11T06:33:47.774Z,15.29
2022-10-11T06:35:20.210Z,15.35
2022-10-11T06:36:51.892Z,15.39
2022-10-11T06:38:23.436Z,15.44
2022-10-11T06:39:54.973Z,15.46
2022-10-11T06:41:27.094Z,15.50
2022-10-11T06:42:58.701Z,15.54
2022-10-11T06:44:30.323Z,15.53
2022-10-11T06:46:02.104Z,15.55
2022-10-11T06:47:33.716Z,15.59
2022-10-11T06:49:05.282Z,15.61
2022-10-11T06:50:58.382Z,15.64
2022-10-11T06:52:31.478Z,15.66
2022-10-11T06:54:03.556Z,15.71
2022-10-11T06:55:35.075Z,15.78
2022-10-11T06:57:06.730Z,15.84
2022-10-11T06:58:38.666Z,15.88
2022-10-11T07:00:12.804Z,15.89
2022-10-11T07:01:44.606Z,15.88
2022-10-11T07:03:16.197Z,15.85
2022-10-11T07:04:47.765Z,15.87
2022-10-11T07:06:22.926Z,15.87
2022-10-11T07:07:54.606Z,15.84
2022-10-11T07:09:26.146Z,15.84
2022-10-11T07:11:04.240Z,15.83
2022-10-11T07:12:35.828Z,15.86
2022-10-11T07:14:08.125Z,15.84
2022-10-11T07:15:41.333Z,15.85
2022-10-11T07:17:12.910Z,15.89
2022-10-11T07:18:44.541Z,15.90
2022-10-11T07:20:16.107Z,15.88
2022-10-11T07:21:47.785Z,15.87
2022-10-11T07:23:19.379Z,15.84
2022-10-11T07:25:06.242Z,15.83
2022-10-11T07:26:50.813Z,15.81
2022-10-11T07:28:30.959Z,15.83
2022-10-11T07:35:16.917Z,16.04
2022-10-11T07:36:52.518Z,16.08
2022-10-11T07:38:28.540Z,16.14
2022-10-11T07:40:11.983Z,16.25
2022-10-11T07:46:47.524Z,16.56
2022-10-11T07:48:19.762Z,16.65
2022-10-11T07:49:51.450Z,16.75
2022-10-11T07:51:23.363Z,16.84
2022-10-11T07:52:54.863Z,16.94
2022-10-11T07:54:26.477Z,16.98
2022-10-11T07:56:02.144Z,17.00
2022-10-11T07:57:37.183Z,17.05
2022-10-11T07:59:13.014Z,17.11
2022-10-11T08:00:54.573Z,17.18
2022-10-11T08:05:47.617Z,17.33
2022-10-11T08:07:26.709Z,17.33
2022-10-11T08:08:58.780Z,17.36
2022-10-11T08:10:30.419Z,17.42
2022-10-11T08:12:02.071Z,17.46
2022-10-11T08:13:34.413Z,17.50
2022-10-11T08:15:06.376Z,17.55
2022-10-11T08:16:48.205Z,17.56
2022-10-11T08:18:23.332Z,17.56
2022-10-11T08:19:59.910Z,17.57
2022-10-11T08:24:38.648Z,17.63
2022-10-11T08:26:14.228Z,17.61
2022-10-11T08:27:46.190Z,17.64
2022-10-11T08:29:17.893Z,17.64
2022-10-11T08:30:50.127Z,17.61
2022-10-11T08:32:21.766Z,17.61
2022-10-11T08:33:53.563Z,17.61
2022-10-11T08:35:25.076Z,17.65
2022-10-11T08:37:05.880Z,17.71
2022-10-11T08:38:40.129Z,17.78
2022-10-11T08:40:23.567Z,17.86
2022-10-11T08:41:55.778Z,17.92
2022-10-11T08:43:27.465Z,17.87
2022-10-11T08:45:10.581Z,17.80
2022-10-11T08:46:43.500Z,17.81
2022-10-11T08:48:16.588Z,17.80
2022-10-11T08:49:48.319Z,17.84
2022-10-11T08:51:27.853Z,17.89
2022-10-11T08:53:00.069Z,17.99
2022-10-11T08:54:38.256Z,18.08
2022-10-11T08:56:10.763Z,18.15
2022-10-11T08:57:42.378Z,18.17
2022-10-11T08:59:13.885Z,18.21
2022-10-11T09:00:45.818Z,18.23
2022-10-11T09:02:20.446Z,18.28
2022-10-11T09:03:52.151Z,18.38
2022-10-11T09:05:23.706Z,18.45
2022-10-11T09:07:19.674Z,18.42
2022-10-11T09:09:03.790Z,18.35
2022-10-11T09:16:00.722Z,18.42
2022-10-11T09:17:35.695Z,18.49
2022-10-11T09:19:25.808Z,18.62
2022-10-11T09:21:08.468Z,18.77
2022-10-11T09:22:55.439Z,18.92
2022-10-11T09:24:39.305Z,19.06
2022-10-11T09:33:20.792Z,19.18
2022-10-11T09:34:53.549Z,19.23
2022-10-11T09:36:33.859Z,19.14
2022-10-11T09:38:06.288Z,19.17
2022-10-11T09:39:39.231Z,19.21
2022-10-11T09:41:30.041Z,19.13
2022-10-11T09:43:01.656Z,19.22
2022-10-11T09:44:34.662Z,19.29
2022-10-11T09:46:17.036Z,19.28
2022-10-11T09:47:49.831Z,19.31
2022-10-11T09:49:22.507Z,19.35
2022-10-11T09:50:55.140Z,19.30
2022-10-11T09:52:27.152Z,19.39
2022-10-11T09:53:59.713Z,19.48
2022-10-11T09:55:34.841Z,19.56
2022-10-11T09:57:07.112Z,19.67
2022-10-11T09:58:39.004Z,19.70
2022-10-11T10:00:19.835Z,19.74
2022-10-11T10:02:06.214Z,19.73
2022-10-11T10:03:38.742Z,19.72
2022-10-11T10:05:10.395Z,19.77
2022-10-11T10:06:42.008Z,19.87
2022-10-11T10:08:16.275Z,19.96
2022-10-11T10:09:47.864Z,20.10
2022-10-11T10:11:19.461Z,20.24
2022-10-11T10:12:54.882Z,20.27
2022-10-11T10:14:29.461Z,20.24
2022-10-11T10:16:01.134Z,20.37
2022-10-11T10:17:33.376Z,20.45
2022-10-11T10:19:07.597Z,20.56
2022-10-11T10:20:39.441Z,20.62
2022-10-11T10:22:21.194Z,20.66
2022-10-11T10:23:54.968Z,20.74
2022-10-11T10:25:32.118Z,20.86
2022-10-11T10:27:06.575Z,20.99
2022-10-11T10:28:38.294Z,21.14
2022-10-11T10:30:10.126Z,21.32
2022-10-11T10:32:12.369Z,21.47
2022-10-11T10:33:39.716Z,21.68
2022-10-11T10:35:30.105Z,21.90
2022-10-11T10:37:20.447Z,22.18
2022-10-11T10:38:55.548Z,22.32
2022-10-11T10:40:34.141Z,22.46
2022-10-11T10:42:06.665Z,22.62
2022-10-11T10:43:39.241Z,22.77
2022-10-11T10:45:21.520Z,22.92
2022-10-11T10:47:16.786Z,23.03
2022-10-11T10:50:43.133Z,23.24
2022-10-11T10:52:20.890Z,23.34
2022-10-11T10:54:01.905Z,23.47
2022-10-11T10:55:33.427Z,23.58
2022-10-11T10:57:10.657Z,23.69
2022-10-11T10:58:51.644Z,23.80
2022-10-11T11:00:23.324Z,23.72
2022-10-11T11:01:54.963Z,23.71
2022-10-11T11:03:28.666Z,23.65
2022-10-11T11:05:03.270Z,23.61
2022-10-11T11:06:41.366Z,23.55
2022-10-11T11:08:13.416Z,23.37
2022-10-11T11:09:53.919Z,23.29
2022-10-11T11:11:28.725Z,23.26
2022-10-11T11:13:09.102Z,23.22
2022-10-11T11:14:59.735Z,23.21
2022-10-11T11:16:31.345Z,23.20
2022-10-11T11:18:05.849Z,23.11
2022-10-11T11:19:56.396Z,22.97
2022-10-11T11:21:48.348Z,22.88
2022-10-11T11:23:38.255Z,22.88
2022-10-11T11:25:30.033Z,22.84
2022-10-11T11:27:02.973Z,22.73
2022-10-11T11:28:40.291Z,22.69
2022-10-11T11:30:12.791Z,22.57
2022-10-11T11:31:54.959Z,22.49
2022-10-11T11:33:49.755Z,22.42
2022-10-11T11:35:21.464Z,22.38
2022-10-11T11:36:56.793Z,22.37
2022-10-11T11:38:48.707Z,22.40
2022-10-11T11:40:34.967Z,22.45
2022-10-11T11:42:10.031Z,22.47
2022-10-11T11:44:04.967Z,22.47
2022-10-11T11:45:42.339Z,22.42
2022-10-11T11:47:17.934Z,22.40
2022-10-11T11:48:49.651Z,22.30
2022-10-11T11:50:22.998Z,22.25
2022-10-11T11:51:54.851Z,22.25
2022-10-11T11:53:35.487Z,22.20
2022-10-11T11:55:12.846Z,22.15
2022-10-11T11:56:50.224Z,22.15
2022-10-11T11:58:28.367Z,22.15
2022-10-11T11:59:59.950Z,22.12
2022-10-11T12:01:43.001Z,22.01
2022-10-11T12:03:17.189Z,21.95
2022-10-11T12:04:48.853Z,21.85
2022-10-11T12:06:22.272Z,21.83
2022-10-11T12:07:56.927Z,21.80
2022-10-11T12:09:28.814Z,21.78
2022-10-11T12:11:00.935Z,21.81
2022-10-11T12:12:36.574Z,21.76
2022-10-11T12:14:27.749Z,21.63
2022-10-11T12:16:02.406Z,21.57
2022-10-11T12:17:34.568Z,21.56
2022-10-11T12:19:08.095Z,21.62
2022-10-11T12:20:41.789Z,21.60
2022-10-11T12:22:18.981Z,21.60
2022-10-11T12:23:52.577Z,21.58
2022-10-11T12:25:28.749Z,21.56
2022-10-11T12:27:01.378Z,21.60
2022-10-11T12:28:42.710Z,21.64
2022-10-11T12:30:32.903Z,21.72
2022-10-11T12:32:04.458Z,21.77
2022-10-11T12:33:36.365Z,21.78
2022-10-11T12:35:26.415Z,21.79
2022-10-11T12:36:57.908Z,21.81
2022-10-11T12:38:29.530Z,21.76
2022-10-11T12:40:01.354Z,21.74
2022-10-11T12:41:36.635Z,21.80
2022-10-11T12:43:14.552Z,21.84
2022-10-11T12:45:06.120Z,21.85
2022-10-11T12:46:42.174Z,21.83
2022-10-11T12:48:23.108Z,21.76
2022-10-11T12:50:06.710Z,21.76
2022-10-11T12:51:50.899Z,21.73
2022-10-11T12:53:31.199Z,21.65
2022-10-11T12:55:21.177Z,21.59
2022-10-11T12:57:16.036Z,21.55
2022-10-11T12:58:47.786Z,21.57
2022-10-11T13:00:20.828Z,21.58
2022-10-11T13:01:56.108Z,21.56
2022-10-11T13:03:32.672Z,21.50
2022-10-11T13:05:23.349Z,21.39
2022-10-11T13:06:56.791Z,21.36
2022-10-11T13:08:32.095Z,21.28
2022-10-11T13:10:04.094Z,21.24
2022-10-11T13:11:36.868Z,21.22
2022-10-11T13:13:10.429Z,21.22
2022-10-11T13:14:43.017Z,21.18
2022-10-11T13:16:16.278Z,21.14
2022-10-11T13:17:48.983Z,21.13
2022-10-11T13:19:21.573Z,21.13
2022-10-11T13:20:53.226Z,21.09
2022-10-11T13:22:28.766Z,21.04
2022-10-11T13:24:01.486Z,21.04
2022-10-11T13:25:36.799Z,21.03
2022-10-11T13:27:08.718Z,21.04
2022-10-11T13:28:47.715Z,21.02
2022-10-11T13:30:20.755Z,21.01
2022-10-11T13:31:52.434Z,21.03
2022-10-11T13:33:25.491Z,21.00
2022-10-11T13:34:57.746Z,21.00
2022-10-11T13:36:29.449Z,21.02
2022-10-11T13:38:01.615Z,21.03
2022-10-11T13:39:37.270Z,21.08
2022-10-11T13:41:11.789Z,21.10
2022-10-11T13:42:44.132Z,21.05
2022-10-11T13:44:15.806Z,21.01
2022-10-11T13:45:47.549Z,20.95
2022-10-11T13:47:20.717Z,20.81
2022-10-11T13:49:01.857Z,20.73
2022-10-11T13:50:34.723Z,20.66
2022-10-11T13:52:07.564Z,20.60
2022-10-11T13:53:39.049Z,20.58
2022-10-11T13:55:23.964Z,20.52
2022-10-11T13:56:55.580Z,20.38
2022-10-11T13:58:27.133Z,20.27
2022-10-11T13:59:59.131Z,20.19
2022-10-11T14:01:40.342Z,20.11
2022-10-11T14:03:15.018Z,20.02
2022-10-11T14:04:48.786Z,19.96
2022-10-11T14:06:20.418Z,19.90
2022-10-11T14:07:52.317Z,19.85
2022-10-11T14:09:33.504Z,19.74
2022-10-11T14:11:06.799Z,19.66
2022-10-11T14:12:40.810Z,19.62
2022-10-11T14:14:30.515Z,19.66
2022-10-11T14:16:04.084Z,19.60
2022-10-11T14:17:38.788Z,19.55
2022-10-11T14:19:10.899Z,19.50
2022-10-11T14:20:42.601Z,19.45
2022-10-11T14:22:15.070Z,19.39
2022-10-11T14:23:53.079Z,19.34
2022-10-11T14:25:24.836Z,19.25
2022-10-11T14:26:57.635Z,19.17
2022-10-11T14:28:29.254Z,19.10
2022-10-11T14:30:24.158Z,19.00
2022-10-11T14:31:57.119Z,18.91
2022-10-11T14:33:28.969Z,18.87
2022-10-11T14:35:00.603Z,18.82
2022-10-11T14:36:32.159Z,18.76
2022-10-11T14:38:03.810Z,18.71
2022-10-11T14:39:35.396Z,18.68
2022-10-11T14:41:07.130Z,18.63
2022-10-11T14:42:39.106Z,18.59
2022-10-11T14:44:11.045Z,18.51
2022-10-11T14:45:42.940Z,18.47
2022-10-11T14:47:17.473Z,18.42
2022-10-11T14:48:55.442Z,18.35
2022-10-11T14:50:39.557Z,18.18
2022-10-11T14:52:11.587Z,18.11
2022-10-11T14:53:46.434Z,18.06
2022-10-11T14:55:18.105Z,18.04
2022-10-11T14:56:50.548Z,18.02
2022-10-11T14:58:22.281Z,17.99
2022-10-11T14:59:53.969Z,17.94
2022-10-11T15:01:25.743Z,17.87
2022-10-11T15:02:57.426Z,17.82
2022-10-11T15:04:29.167Z,17.82
2022-10-11T15:06:00.818Z,17.78
2022-10-11T15:07:33.475Z,17.75
2022-10-11T15:09:05.608Z,17.76
2022-10-11T15:10:38.107Z,17.78
2022-10-11T15:12:09.738Z,17.75
2022-10-11T15:13:41.510Z,17.72
2022-10-11T15:15:19.749Z,17.67
2022-10-11T15:16:51.947Z,17.63
2022-10-11T15:18:31.216Z,17.64
2022-10-11T15:20:10.186Z,17.61
2022-10-11T15:27:05.256Z,17.41
2022-10-11T15:28:38.000Z,17.40
2022-10-11T15:30:16.973Z,17.35
2022-10-11T15:31:49.875Z,17.30
2022-10-11T15:33:21.867Z,17.30
2022-10-11T15:34:53.655Z,17.29
2022-10-11T15:36:25.415Z,17.24
2022-10-11T15:37:57.668Z,17.21
2022-10-11T15:39:34.404Z,17.18
2022-10-11T15:41:06.397Z,17.12
2022-10-11T15:42:38.162Z,17.08
2022-10-11T15:44:09.958Z,17.07
2022-10-11T15:45:41.585Z,17.02
2022-10-11T15:47:13.361Z,16.94
2022-10-11T15:48:45.234Z,16.91
2022-10-11T15:50:23.776Z,16.91
2022-10-11T15:51:55.566Z,16.92
2022-10-11T15:53:28.706Z,16.90
2022-10-11T15:55:23.551Z,16.85
2022-10-11T15:56:55.182Z,16.79
2022-10-11T15:58:28.090Z,16.75
2022-10-11T15:59:59.975Z,16.70
2022-10-11T16:01:31.866Z,16.63
2022-10-11T16:03:03.598Z,16.59
2022-10-11T16:04:35.233Z,16.57
2022-10-11T16:06:07.219Z,16.53
2022-10-11T16:07:39.535Z,16.53
2022-10-11T16:09:11.092Z,16.49
2022-10-11T16:10:42.801Z,16.46
2022-10-11T16:12:14.741Z,16.45
2022-10-11T16:13:46.422Z,16.44
2022-10-11T16:15:18.224Z,16.43
2022-10-11T16:16:50.543Z,16.38
2022-10-11T16:18:22.680Z,16.36
2022-10-11T16:19:54.456Z,16.37
2022-10-11T16:21:26.290Z,16.37
2022-10-11T16:22:57.866Z,16.33
2022-10-11T16:24:29.579Z,16.33
2022-10-11T16:26:02.523Z,16.34
2022-10-11T16:27:34.299Z,16.36
2022-10-11T16:29:06.025Z,16.33
2022-10-11T16:30:43.269Z,16.34
2022-10-11T16:32:15.445Z,16.33
2022-10-11T16:33:47.209Z,16.32
2022-10-11T16:35:18.841Z,16.29
2022-10-11T16:36:50.639Z,16.25
2022-10-11T16:38:22.521Z,16.24
2022-10-11T16:39:55.827Z,16.26
2022-10-11T16:41:28.184Z,16.27
2022-10-11T16:43:07.460Z,16.28
2022-10-11T16:44:39.901Z,16.24
2022-10-11T16:46:11.886Z,16.23
2022-10-11T16:47:43.644Z,16.21
2022-10-11T16:49:18.731Z,16.19
2022-10-11T16:50:50.613Z,16.19
2022-10-11T16:52:22.151Z,16.18
2022-10-11T16:53:53.822Z,16.20
2022-10-11T16:55:25.729Z,16.21
2022-10-11T16:56:57.617Z,16.22
2022-10-11T16:58:29.299Z,16.18
2022-10-11T17:00:01.151Z,16.15
2022-10-11T17:01:32.746Z,16.13
2022-10-11T17:03:04.653Z,16.13
2022-10-11T17:04:36.388Z,16.13
2022-10-11T17:06:08.376Z,16.13
2022-10-11T17:07:42.660Z,16.11
2022-10-11T17:09:14.834Z,16.07
2022-10-11T17:10:47.935Z,16.11
2022-10-11T17:12:22.390Z,16.15
2022-10-11T17:13:54.072Z,16.20
2022-10-11T17:15:26.539Z,16.27
2022-10-11T17:16:58.352Z,16.30
2022-10-11T17:18:30.480Z,16.33
2022-10-11T17:20:02.518Z,16.35
2022-10-11T17:21:34.198Z,16.34
2022-10-11T17:23:06.070Z,16.33
2022-10-11T17:24:37.932Z,16.33
2022-10-11T17:26:11.550Z,16.36
2022-10-11T17:27:44.146Z,16.37
2022-10-11T17:29:16.177Z,16.42
2022-10-11T17:30:57.184Z,16.43
2022-10-11T17:32:29.068Z,16.44
2022-10-11T17:34:00.915Z,16.45
2022-10-11T17:35:32.675Z,16.47
2022-10-11T17:37:04.309Z,16.49
2022-10-11T17:38:36.007Z,16.46
2022-10-11T17:40:08.135Z,16.44
2022-10-11T17:41:39.827Z,16.43
2022-10-11T17:43:11.532Z,16.42
2022-10-11T17:44:43.074Z,16.42
2022-10-11T17:46:15.194Z,16.39
2022-10-11T17:47:46.831Z,16.38
2022-10-11T17:49:18.589Z,16.39
2022-10-11T17:50:51.002Z,16.42
2022-10-11T17:52:22.734Z,16.42
2022-10-11T17:53:54.412Z,16.43
2022-10-11T17:55:26.086Z,16.41
2022-10-11T17:56:58.147Z,16.39
2022-10-11T17:58:29.824Z,16.39
2022-10-11T18:00:04.248Z,16.39
2022-10-11T18:01:36.363Z,16.39
2022-10-11T18:03:08.068Z,16.39
2022-10-11T18:04:39.731Z,16.39
2022-10-11T18:06:12.798Z,16.40
2022-10-11T18:07:44.404Z,16.42
2022-10-11T18:09:16.488Z,16.45
2022-10-11T18:10:48.158Z,16.42
2022-10-11T18:12:19.731Z,16.40
2022-10-11T18:13:51.954Z,16.36
2022-10-11T18:15:23.656Z,16.32
2022-10-11T18:16:55.541Z,16.31
2022-10-11T18:18:27.143Z,16.26
2022-10-11T18:19:58.778Z,16.26
2022-10-11T18:21:34.560Z,16.24
2022-10-11T18:23:06.626Z,16.25
2022-10-11T18:24:39.315Z,16.30
2022-10-11T18:26:14.246Z,16.30
2022-10-11T18:27:46.361Z,16.31
2022-10-11T18:29:18.054Z,16.32
2022-10-11T18:30:49.570Z,16.31
2022-10-11T18:32:21.832Z,16.26
2022-10-11T18:33:53.570Z,16.21
2022-10-11T18:35:25.513Z,16.19
2022-10-11T18:36:57.085Z,16.20
2022-10-11T18:38:28.636Z,16.19
2022-10-11T18:40:00.681Z,16.21
2022-10-11T18:41:32.658Z,16.21
2022-10-11T18:43:04.499Z,16.20
2022-10-11T18:44:36.099Z,16.17
2022-10-11T18:46:08.047Z,16.12
2022-10-11T18:47:39.924Z,16.07
2022-10-11T18:49:11.993Z,16.10
2022-10-11T18:50:43.680Z,16.09
2022-10-11T18:52:15.571Z,16.11
2022-10-11T18:53:48.453Z,16.10
2022-10-11T18:55:20.020Z,16.10
2022-10-11T18:56:54.429Z,16.11
2022-10-11T18:58:30.373Z,16.12
2022-10-11T19:00:12.009Z,16.08
2022-10-11T19:11:22.403Z,15.87
2022-10-11T19:12:54.134Z,15.83
2022-10-11T19:14:26.858Z,15.81
2022-10-11T19:16:08.786Z,15.77
2022-10-11T19:17:40.980Z,15.77
2022-10-11T19:19:13.112Z,15.80
2022-10-11T19:20:44.784Z,15.82
2022-10-11T19:22:16.400Z,15.80
2022-10-11T19:23:48.138Z,15.81
2022-10-11T19:25:19.872Z,15.81
2022-10-11T19:26:53.107Z,15.76
2022-10-11T19:28:24.793Z,15.74
2022-10-11T19:29:56.635Z,15.69
2022-10-11T19:31:28.315Z,15.65
2022-10-11T19:33:00.986Z,15.59
2022-10-11T19:34:33.227Z,15.51
2022-10-11T19:36:05.323Z,15.46
2022-10-11T19:37:37.529Z,15.42
2022-10-11T19:39:12.382Z,15.40
2022-10-11T19:40:43.937Z,15.40
2022-10-11T19:42:15.673Z,15.36
2022-10-11T19:43:47.429Z,15.31
2022-10-11T19:45:19.056Z,15.29
2022-10-11T19:46:52.061Z,15.26
2022-10-11T19:48:24.526Z,15.24
2022-10-11T19:49:56.330Z,15.24
2022-10-11T19:51:28.737Z,15.22
2022-10-11T19:53:00.434Z,15.22
2022-10-11T19:54:32.468Z,15.22
2022-10-11T19:56:04.957Z,15.22
2022-10-11T19:57:36.650Z,15.26
2022-10-11T19:59:08.360Z,15.29
2022-10-11T20:00:40.211Z,15.29
2022-10-11T20:02:12.374Z,15.26
2022-10-11T20:03:44.419Z,15.30
2022-10-11T20:05:16.386Z,15.32
2022-10-11T20:06:48.404Z,15.30
2022-10-11T20:08:20.214Z,15.28
2022-10-11T20:09:51.876Z,15.28
2022-10-11T20:11:23.781Z,15.27
2022-10-11T20:12:55.891Z,15.27
2022-10-11T20:14:27.515Z,15.25
2022-10-11T20:16:09.358Z,15.25
2022-10-11T20:17:50.214Z,15.26
2022-10-11T20:19:26.344Z,15.26
2022-10-11T20:21:03.796Z,15.25
2022-10-11T20:22:35.638Z,15.23
2022-10-11T20:24:08.669Z,15.17
2022-10-11T20:25:40.516Z,15.14
2022-10-11T20:27:12.674Z,15.14
2022-10-11T20:28:44.481Z,15.14
2022-10-11T20:30:16.112Z,15.11
2022-10-11T20:31:47.777Z,15.11
2022-10-11T20:40:58.290Z,15.07
2022-10-11T20:42:30.104Z,15.07
2022-10-11T20:44:01.763Z,15.08
2022-10-11T20:45:33.430Z,15.07
2022-10-11T20:47:05.349Z,15.09
2022-10-11T20:48:37.205Z,15.11
2022-10-11T20:50:08.958Z,15.14
2022-10-11T20:51:41.914Z,15.15
2022-10-11T20:53:16.335Z,15.18
2022-10-11T20:54:48.352Z,15.18
2022-10-11T20:56:20.604Z,15.19
2022-10-11T20:57:52.243Z,15.17
2022-10-11T20:59:23.850Z,15.19
2022-10-11T21:00:55.605Z,15.19
2022-10-11T21:02:27.135Z,15.20
2022-10-11T21:03:59.059Z,15.19
2022-10-11T21:05:30.698Z,15.18
2022-10-11T21:07:02.176Z,15.17
2022-10-11T21:08:34.191Z,15.12
2022-10-11T21:10:06.122Z,15.10
2022-10-11T21:11:37.979Z,15.11
2022-10-11T21:13:09.550Z,15.10
2022-10-11T21:14:41.136Z,15.10
2022-10-11T21:16:14.543Z,15.07
2022-10-11T21:17:46.385Z,15.05
2022-10-11T21:19:18.210Z,15.02
2022-10-11T21:20:49.855Z,15.01
2022-10-11T21:22:21.421Z,14.99
2022-10-11T21:23:56.489Z,14.97
2022-10-11T21:25:28.013Z,14.94
2022-10-11T21:27:00.745Z,14.97
2022-10-11T21:28:33.655Z,14.99
2022-10-11T21:30:06.137Z,14.96